createdAt,value
2023-05-21T00:00:20.825Z,3.40
2023-05-21T00:02:47.442Z,2.15
2023-05-21T00:05:15.589Z,2.75
2023-05-21T00:07:42.153Z,1.63
2023-05-21T00:10:08.823Z,3.13
2023-05-21T00:12:35.466Z,2.40
2023-05-21T00:15:01.997Z,2.65
2023-05-21T00:17:28.695Z,2.05
2023-05-21T00:19:56.870Z,1.95
2023-05-21T00:22:23.888Z,2.30
2023-05-21T00:24:50.352Z,2.55
2023-05-21T00:27:16.935Z,2.45
2023-05-21T00:29:44.490Z,3.42
2023-05-21T00:32:11.202Z,1.85
2023-05-21T00:34:38.431Z,2.50
2023-05-21T00:37:04.925Z,2.88
2023-05-21T00:39:31.425Z,2.33
2023-05-21T00:41:57.953Z,2.42
2023-05-21T00:44:25.476Z,3.30
2023-05-21T00:46:53.770Z,2.28
2023-05-21T00:49:22.573Z,2.75
2023-05-21T00:51:49.574Z,3.47
2023-05-21T00:54:16.102Z,2.28
2023-05-21T00:56:42.629Z,2.70
2023-05-21T00:59:09.321Z,2.88
2023-05-21T01:01:37.030Z,3.05
2023-05-21T01:04:06.825Z,2.90
2023-05-21T01:06:36.029Z,1.88
2023-05-21T01:09:05.236Z,4.22
2023-05-21T01:11:42.566Z,3.65
2023-05-21T01:14:10.209Z,2.08
2023-05-21T01:16:37.537Z,1.80
2023-05-21T01:19:05.450Z,3.13
2023-05-21T01:21:35.374Z,4.28
2023-05-21T01:24:05.539Z,3.45
2023-05-21T01:26:33.733Z,2.42
2023-05-21T01:29:00.286Z,1.42
2023-05-21T01:31:29.656Z,3.08
2023-05-21T01:36:27.181Z,3.97
2023-05-21T01:38:59.649Z,2.90
2023-05-21T01:41:27.464Z,3.90
2023-05-21T01:43:57.755Z,2.53
2023-05-21T01:46:26.602Z,3.75
2023-05-21T01:48:54.300Z,5.05
2023-05-21T01:51:21.073Z,1.98
2023-05-21T01:53:47.491Z,3.40
2023-05-21T01:56:15.894Z,1.92
2023-05-21T01:58:46.994Z,2.85
2023-05-21T02:01:13.417Z,3.90
2023-05-21T02:03:39.990Z,3.75
2023-05-21T02:06:06.465Z,2.13
2023-05-21T02:08:36.105Z,2.83
2023-05-21T02:11:02.686Z,3.03
2023-05-21T02:13:29.286Z,2.67
2023-05-21T02:15:56.256Z,2.65
2023-05-21T02:18:23.160Z,1.88
2023-05-21T02:20:49.720Z,2.85
2023-05-21T02:23:16.252Z,3.85
2023-05-21T02:25:42.877Z,1.60
2023-05-21T02:28:09.426Z,3.33
2023-05-21T02:30:38.883Z,2.15
2023-05-21T02:33:05.410Z,2.58
2023-05-21T02:35:32.328Z,2.75
2023-05-21T02:37:59.577Z,1.98
2023-05-21T02:40:26.325Z,2.70
2023-05-21T02:42:52.851Z,3.10
2023-05-21T02:45:19.286Z,3.60
2023-05-21T02:47:45.816Z,2.17
2023-05-21T02:50:13.548Z,3.70
2023-05-21T02:52:40.016Z,4.43
2023-05-21T02:55:06.725Z,5.03
2023-05-21T02:57:33.135Z,3.13
2023-05-21T02:59:59.562Z,4.25
2023-05-21T03:02:26.252Z,3.83
2023-05-21T03:04:52.747Z,4.25
2023-05-21T03:07:19.947Z,2.28
2023-05-21T03:09:46.912Z,2.30
2023-05-21T03:12:13.435Z,1.83
2023-05-21T03:14:39.914Z,2.90
2023-05-21T03:17:09.436Z,4.00
2023-05-21T03:19:36.461Z,5.97
2023-05-21T03:22:06.572Z,2.10
2023-05-21T03:24:33.244Z,4.10
2023-05-21T03:27:01.500Z,2.17
2023-05-21T03:29:28.406Z,2.13
2023-05-21T03:31:54.979Z,3.03
2023-05-21T03:34:21.669Z,3.90
2023-05-21T03:36:48.201Z,1.75
2023-05-21T03:39:14.664Z,4.35
2023-05-21T03:41:41.044Z,1.52
2023-05-21T03:44:07.782Z,1.33
2023-05-21T03:46:34.399Z,5.82
2023-05-21T03:49:00.929Z,2.65
2023-05-21T03:51:27.797Z,4.13
2023-05-21T03:53:54.212Z,1.90
2023-05-21T03:56:21.668Z,3.03
2023-05-21T03:58:48.268Z,1.80
2023-05-21T04:01:14.675Z,3.58
2023-05-21T04:03:41.389Z,2.88
2023-05-21T04:06:10.246Z,2.40
2023-05-21T04:08:38.046Z,2.42
2023-05-21T04:11:04.488Z,5.22
2023-05-21T04:13:30.937Z,2.17
2023-05-21T04:15:57.336Z,3.50
2023-05-21T04:18:25.924Z,3.55
2023-05-21T04:20:52.907Z,4.40
2023-05-21T04:23:19.423Z,5.07
2023-05-21T04:25:50.510Z,4.90
2023-05-21T04:28:20.471Z,5.47
2023-05-21T04:30:50.118Z,4.75
2023-05-21T04:33:18.473Z,2.63
2023-05-21T04:35:47.464Z,2.37
2023-05-21T04:38:14.147Z,2.05
2023-05-21T04:40:40.716Z,1.95
2023-05-21T04:43:08.247Z,2.15
2023-05-21T04:45:35.029Z,2.60
2023-05-21T04:48:02.988Z,2.88
2023-05-21T04:50:30.993Z,2.08
2023-05-21T04:52:58.917Z,1.73
2023-05-21T04:55:25.967Z,5.03
2023-05-21T04:57:52.897Z,2.08
2023-05-21T05:00:19.712Z,1.80
2023-05-21T05:02:46.461Z,2.78
2023-05-21T05:05:13.021Z,1.95
2023-05-21T05:07:39.427Z,2.50
2023-05-21T05:10:08.864Z,8.48
2023-05-21T05:12:35.341Z,3.55
2023-05-21T05:15:01.829Z,3.53
2023-05-21T05:17:28.381Z,2.50
2023-05-21T05:19:54.914Z,2.08
2023-05-21T05:22:21.295Z,1.75
2023-05-21T05:24:47.863Z,2.28
2023-05-21T05:27:14.356Z,2.10
2023-05-21T05:29:40.882Z,3.42
2023-05-21T05:32:07.722Z,2.72
2023-05-21T05:34:34.155Z,4.45
2023-05-21T05:37:00.652Z,3.10
2023-05-21T05:39:27.048Z,2.63
2023-05-21T05:41:53.492Z,3.55
2023-05-21T05:44:20.050Z,4.43
2023-05-21T05:46:46.614Z,1.70
2023-05-21T05:49:13.919Z,2.35
2023-05-21T05:51:40.878Z,3.70
2023-05-21T05:54:07.267Z,2.75
2023-05-21T05:56:33.876Z,2.20
2023-05-21T05:59:00.257Z,3.60
2023-05-21T06:01:27.026Z,7.00
2023-05-21T06:03:53.622Z,2.22
2023-05-21T06:06:20.540Z,2.55
2023-05-21T06:08:47.100Z,5.53
2023-05-21T06:11:17.033Z,3.45
2023-05-21T06:13:43.594Z,2.22
2023-05-21T06:16:10.225Z,5.40
2023-05-21T06:18:39.190Z,5.68
2023-05-21T06:21:05.744Z,2.83
2023-05-21T06:23:32.740Z,2.70
2023-05-21T06:25:59.398Z,2.97
2023-05-21T06:28:25.883Z,1.75
2023-05-21T06:30:52.510Z,2.78
2023-05-21T06:33:19.164Z,2.00
2023-05-21T06:35:45.907Z,5.20
2023-05-21T06:38:12.336Z,4.38
2023-05-21T06:40:38.866Z,1.98
2023-05-21T06:43:05.510Z,3.20
2023-05-21T06:45:32.065Z,2.95
2023-05-21T06:47:58.816Z,2.65
2023-05-21T06:50:25.263Z,3.05
2023-05-21T06:52:51.669Z,4.28
2023-05-21T06:55:18.254Z,2.38
2023-05-21T06:57:44.656Z,2.75
2023-05-21T07:00:12.741Z,4.75
2023-05-21T07:02:39.310Z,4.05
2023-05-21T07:05:06.049Z,2.90
2023-05-21T07:07:34.866Z,2.65
2023-05-21T07:10:01.758Z,1.75
2023-05-21T07:12:31.214Z,1.65
2023-05-21T07:14:59.243Z,1.52
2023-05-21T07:17:26.072Z,4.88
2023-05-21T07:19:52.672Z,4.90
2023-05-21T07:22:19.178Z,2.70
2023-05-21T07:24:48.378Z,4.05
2023-05-21T07:27:25.323Z,4.78
2023-05-21T07:29:52.656Z,5.40
2023-05-21T07:32:19.070Z,2.15
2023-05-21T07:34:45.474Z,2.58
2023-05-21T07:37:12.316Z,1.70
2023-05-21T07:39:38.819Z,4.65
2023-05-21T07:42:05.640Z,2.80
2023-05-21T07:44:32.192Z,3.40
2023-05-21T07:46:58.607Z,3.90
2023-05-21T07:49:25.128Z,2.90
2023-05-21T07:51:51.816Z,3.60
2023-05-21T07:54:19.745Z,5.38
2023-05-21T07:56:46.421Z,5.60
2023-05-21T07:59:14.678Z,2.80
2023-05-21T08:01:42.092Z,3.65
2023-05-21T08:04:08.778Z,2.75
2023-05-21T08:06:37.676Z,3.28
2023-05-21T08:09:07.596Z,4.00
2023-05-21T08:11:34.185Z,3.90
2023-05-21T08:14:00.715Z,3.15
2023-05-21T08:16:27.196Z,2.65
2023-05-21T08:18:53.806Z,3.10
2023-05-21T08:21:20.397Z,2.60
2023-05-21T08:23:47.036Z,5.00
2023-05-21T08:26:16.468Z,2.63
2023-05-21T08:28:43.432Z,2.13
2023-05-21T08:31:10.020Z,4.57
2023-05-21T08:33:38.348Z,3.55
2023-05-21T08:36:08.137Z,3.83
2023-05-21T08:38:35.050Z,3.35
2023-05-21T08:41:01.552Z,3.28
2023-05-21T08:43:28.277Z,4.13
2023-05-21T08:45:55.845Z,2.35
2023-05-21T08:48:23.102Z,3.63
2023-05-21T08:51:03.655Z,2.78
2023-05-21T08:53:32.500Z,3.55
2023-05-21T08:55:59.121Z,2.55
2023-05-21T08:58:25.731Z,4.70
2023-05-21T09:00:52.307Z,3.15
2023-05-21T09:03:19.146Z,2.72
2023-05-21T09:05:48.596Z,4.43
2023-05-21T09:08:32.684Z,3.28
2023-05-21T09:11:01.508Z,5.00
2023-05-21T09:13:32.151Z,2.55
2023-05-21T09:15:59.032Z,4.32
2023-05-21T09:18:27.587Z,4.90
2023-05-21T09:20:54.225Z,2.63
2023-05-21T09:23:20.712Z,4.50
2023-05-21T09:25:47.727Z,3.63
2023-05-21T09:28:15.047Z,3.60
2023-05-21T09:30:45.640Z,5.25
2023-05-21T09:33:12.832Z,3.42
2023-05-21T09:35:46.533Z,3.45
2023-05-21T09:38:13.081Z,5.63
2023-05-21T09:40:43.362Z,3.92
2023-05-21T09:43:16.365Z,7.15
2023-05-21T09:45:55.791Z,3.83
2023-05-21T09:48:44.176Z,3.65
2023-05-21T09:51:10.871Z,2.65
2023-05-21T09:53:42.632Z,3.42
2023-05-21T09:56:09.811Z,3.65
2023-05-21T09:58:36.418Z,3.63
2023-05-21T10:01:02.958Z,3.08
2023-05-21T10:03:30.104Z,3.60
2023-05-21T10:05:57.799Z,3.22
2023-05-21T10:08:28.108Z,3.97
2023-05-21T10:10:54.691Z,3.95
2023-05-21T10:13:22.126Z,3.17
2023-05-21T10:15:51.010Z,5.83
2023-05-21T10:18:19.077Z,4.65
2023-05-21T10:20:48.832Z,3.63
2023-05-21T10:23:15.504Z,6.95
2023-05-21T10:25:42.106Z,2.97
2023-05-21T10:28:08.608Z,3.38
2023-05-21T10:30:36.365Z,2.75
2023-05-21T10:33:03.548Z,3.78
2023-05-21T10:35:30.048Z,4.47
2023-05-21T10:37:57.432Z,4.85
2023-05-21T10:40:23.945Z,5.22
2023-05-21T10:42:59.387Z,4.07
2023-05-21T10:45:32.789Z,3.42
2023-05-21T10:48:13.285Z,3.78
2023-05-21T10:50:52.237Z,2.60
2023-05-21T10:53:43.572Z,3.35
2023-05-21T10:56:28.759Z,3.58
2023-05-21T10:59:04.215Z,4.22
2023-05-21T11:01:34.147Z,4.03
2023-05-21T11:04:01.214Z,2.75
2023-05-21T11:06:28.142Z,2.87
2023-05-21T11:08:55.715Z,5.07
2023-05-21T11:13:53.318Z,3.97
2023-05-21T11:16:25.603Z,3.15
2023-05-21T11:18:55.034Z,4.38
2023-05-21T11:21:22.428Z,3.60
2023-05-21T11:23:51.791Z,4.90
2023-05-21T11:26:18.199Z,3.58
2023-05-21T11:28:44.586Z,3.17
2023-05-21T11:31:27.170Z,2.83
2023-05-21T11:34:28.890Z,3.85
2023-05-21T11:37:15.786Z,5.40
2023-05-21T11:39:42.267Z,6.07
2023-05-21T11:42:08.725Z,4.82
2023-05-21T11:44:44.358Z,5.47
2023-05-21T11:47:11.864Z,5.72
2023-05-21T11:49:39.132Z,3.70
2023-05-21T11:52:06.726Z,4.35
2023-05-21T11:57:11.202Z,3.63
2023-05-21T11:59:37.836Z,5.95
2023-05-21T12:02:04.968Z,4.15
2023-05-21T12:04:32.071Z,5.30
2023-05-21T12:06:58.652Z,3.90
2023-05-21T12:09:25.363Z,3.50
2023-05-21T12:11:54.029Z,5.03
2023-05-21T12:14:21.570Z,4.18
2023-05-21T12:16:48.265Z,4.95
2023-05-21T12:19:17.453Z,5.15
2023-05-21T12:21:43.958Z,4.85
2023-05-21T12:24:10.927Z,6.00
2023-05-21T12:26:37.588Z,6.03
2023-05-21T12:29:04.606Z,5.33
2023-05-21T12:31:32.812Z,6.13
2023-05-21T12:33:59.703Z,4.75
2023-05-21T12:36:27.175Z,4.82
2023-05-21T12:38:53.879Z,4.70
2023-05-21T12:41:22.152Z,8.17
2023-05-21T12:43:48.873Z,7.78
2023-05-21T12:46:17.628Z,4.77
2023-05-21T12:48:52.943Z,8.48
2023-05-21T12:51:19.796Z,5.30
2023-05-21T12:53:46.488Z,5.93
2023-05-21T12:56:13.388Z,5.93
2023-05-21T12:58:40.306Z,5.22
2023-05-21T13:01:10.649Z,5.30
2023-05-21T13:03:37.830Z,5.97
2023-05-21T13:06:08.361Z,5.80
2023-05-21T13:08:35.493Z,6.05
2023-05-21T13:11:02.331Z,6.35
2023-05-21T13:13:28.985Z,9.70
2023-05-21T13:15:55.699Z,5.35
2023-05-21T13:18:22.636Z,4.75
2023-05-21T13:20:49.266Z,6.73
2023-05-21T13:23:18.535Z,5.63
2023-05-21T13:25:45.003Z,5.53
2023-05-21T13:28:15.103Z,5.70
2023-05-21T13:30:41.679Z,6.97
2023-05-21T13:33:08.427Z,8.82
2023-05-21T13:35:37.864Z,6.68
2023-05-21T13:38:04.348Z,8.55
2023-05-21T13:40:30.954Z,6.75
2023-05-21T13:42:57.880Z,6.25
2023-05-21T13:45:29.269Z,6.93
2023-05-21T13:47:56.553Z,6.93
2023-05-21T13:50:23.222Z,6.28
2023-05-21T13:52:49.939Z,7.95
2023-05-21T13:55:16.945Z,9.38
2023-05-21T13:57:43.806Z,5.63
2023-05-21T14:00:12.670Z,7.28
2023-05-21T14:02:39.317Z,5.93
2023-05-21T14:05:06.148Z,7.20
2023-05-21T14:07:32.740Z,7.32
2023-05-21T14:09:59.248Z,5.85
2023-05-21T14:12:26.698Z,7.40
2023-05-21T14:14:53.156Z,5.55
2023-05-21T14:17:19.896Z,6.07
2023-05-21T14:19:48.026Z,5.00
2023-05-21T14:22:14.523Z,5.35
2023-05-21T14:24:40.949Z,5.55
2023-05-21T14:27:07.425Z,5.22
2023-05-21T14:29:33.879Z,6.28
2023-05-21T14:32:00.458Z,5.90
2023-05-21T14:34:32.849Z,8.40
2023-05-21T14:36:59.298Z,6.00
2023-05-21T14:39:34.517Z,5.40
2023-05-21T14:42:02.919Z,5.05
2023-05-21T14:44:29.480Z,4.82
2023-05-21T14:46:56.011Z,7.18
2023-05-21T14:49:22.465Z,7.07
2023-05-21T14:51:49.032Z,5.25
2023-05-21T14:54:15.742Z,4.90
2023-05-21T14:56:42.265Z,7.03
2023-05-21T14:59:13.773Z,5.28
2023-05-21T15:01:40.486Z,5.15
2023-05-21T15:04:08.044Z,7.10
2023-05-21T15:06:34.901Z,6.88
2023-05-21T15:09:01.466Z,6.75
2023-05-21T15:11:28.191Z,8.55
2023-05-21T15:13:54.634Z,5.32
2023-05-21T15:16:21.269Z,6.50
2023-05-21T15:18:47.861Z,5.78
2023-05-21T15:21:14.720Z,6.95
2023-05-21T15:23:41.305Z,5.78
2023-05-21T15:26:09.105Z,5.50
2023-05-21T15:28:35.674Z,7.03
2023-05-21T15:31:02.250Z,4.75
2023-05-21T15:33:28.733Z,6.05
2023-05-21T15:35:55.381Z,6.82
2023-05-21T15:38:21.881Z,4.50
2023-05-21T15:40:48.335Z,5.63
2023-05-21T15:43:15.506Z,5.75
2023-05-21T15:45:42.083Z,5.30
2023-05-21T15:48:08.887Z,5.85
2023-05-21T15:50:38.295Z,7.15
2023-05-21T15:53:04.992Z,6.00
2023-05-21T15:55:34.635Z,5.05
2023-05-21T15:58:02.568Z,6.25
2023-05-21T16:00:29.712Z,7.75
2023-05-21T16:02:59.046Z,5.45
2023-05-21T16:05:27.283Z,6.28
2023-05-21T16:07:53.808Z,5.20
2023-05-21T16:10:21.209Z,6.03
2023-05-21T16:12:48.063Z,6.13
2023-05-21T16:15:17.207Z,6.95
2023-05-21T16:17:43.829Z,4.97
2023-05-21T16:20:10.720Z,5.68
2023-05-21T16:22:37.284Z,6.75
2023-05-21T16:25:04.023Z,7.20
2023-05-21T16:27:30.577Z,6.85
2023-05-21T16:29:57.198Z,7.63
2023-05-21T16:32:24.108Z,7.78
2023-05-21T16:34:50.873Z,6.93
2023-05-21T16:37:17.384Z,5.82
2023-05-21T16:39:43.801Z,9.05
2023-05-21T16:42:10.237Z,7.28
2023-05-21T16:44:38.001Z,7.07
2023-05-21T16:47:05.066Z,5.50
2023-05-21T16:49:31.479Z,5.53
2023-05-21T16:51:58.053Z,6.95
2023-05-21T16:54:27.539Z,7.32
2023-05-21T16:56:55.084Z,6.72
2023-05-21T16:59:21.592Z,7.30
2023-05-21T17:01:48.549Z,6.95
2023-05-21T17:04:15.222Z,6.55
2023-05-21T17:06:41.703Z,5.65
2023-05-21T17:09:08.206Z,5.80
2023-05-21T17:12:05.820Z,6.47
2023-05-21T17:14:34.351Z,7.15
2023-05-21T17:17:01.866Z,8.55
2023-05-21T17:19:28.459Z,7.70
2023-05-21T17:21:55.619Z,8.30
2023-05-21T17:24:22.203Z,5.25
2023-05-21T17:26:48.655Z,6.95
2023-05-21T17:29:15.516Z,8.35
2023-05-21T17:31:44.053Z,7.03
2023-05-21T17:34:10.754Z,5.53
2023-05-21T17:36:37.211Z,7.80
2023-05-21T17:39:03.724Z,7.75
2023-05-21T17:41:30.174Z,6.13
2023-05-21T17:43:57.242Z,5.80
2023-05-21T17:46:23.787Z,7.88
2023-05-21T17:48:50.448Z,5.97
2023-05-21T17:51:16.922Z,6.40
2023-05-21T17:53:43.500Z,6.55
2023-05-21T17:56:11.364Z,12.43
2023-05-21T17:58:37.918Z,5.45
2023-05-21T18:01:04.851Z,6.22
2023-05-21T18:03:31.478Z,8.27
2023-05-21T18:05:57.985Z,5.75
2023-05-21T18:08:24.506Z,6.57
2023-05-21T18:10:50.991Z,5.32
2023-05-21T18:13:17.463Z,7.93
2023-05-21T18:15:43.909Z,5.68
2023-05-21T18:18:19.882Z,6.75
2023-05-21T18:20:47.908Z,5.28
2023-05-21T18:23:14.555Z,6.28
2023-05-21T18:25:41.039Z,6.38
2023-05-21T18:28:08.101Z,8.10
2023-05-21T18:30:34.884Z,5.93
2023-05-21T18:33:01.939Z,4.90
2023-05-21T18:35:29.278Z,8.00
2023-05-21T18:37:56.084Z,5.30
2023-05-21T18:40:24.967Z,5.70
2023-05-21T18:42:52.081Z,5.28
2023-05-21T18:45:18.551Z,7.38
2023-05-21T18:47:45.137Z,5.22
2023-05-21T18:50:15.519Z,6.15
2023-05-21T18:52:41.989Z,6.53
2023-05-21T18:55:08.855Z,7.30
2023-05-21T18:57:35.303Z,5.40
2023-05-21T19:00:01.770Z,5.05
2023-05-21T19:02:29.798Z,4.72
2023-05-21T19:04:56.313Z,4.15
2023-05-21T19:07:22.729Z,4.30
2023-05-21T19:09:49.232Z,5.07
2023-05-21T19:12:16.072Z,5.30
2023-05-21T19:14:44.934Z,4.85
2023-05-21T19:17:11.729Z,4.40
2023-05-21T19:19:38.235Z,4.28
2023-05-21T19:22:04.820Z,4.97
2023-05-21T19:24:31.374Z,6.60
2023-05-21T19:26:58.105Z,4.68
2023-05-21T19:29:24.519Z,5.40
2023-05-21T19:31:54.975Z,4.63
2023-05-21T19:34:24.738Z,6.00
2023-05-21T19:36:53.694Z,4.25
2023-05-21T19:41:47.108Z,4.18
2023-05-21T19:44:13.746Z,6.13
2023-05-21T19:46:40.242Z,4.35
2023-05-21T19:49:06.769Z,4.85
2023-05-21T19:51:33.226Z,7.15
2023-05-21T19:53:59.693Z,6.68
2023-05-21T19:56:26.703Z,4.57
2023-05-21T19:58:53.205Z,5.60
2023-05-21T20:01:19.793Z,4.10
2023-05-21T20:03:46.438Z,5.93
2023-05-21T20:06:14.190Z,3.85
2023-05-21T20:08:40.723Z,4.90
2023-05-21T20:11:07.200Z,5.63
2023-05-21T20:13:33.733Z,6.35
2023-05-21T20:16:00.271Z,4.43
2023-05-21T20:18:26.696Z,4.50
2023-05-21T20:20:53.176Z,4.07
2023-05-21T20:23:19.675Z,4.70
2023-05-21T20:25:46.165Z,6.20
2023-05-21T20:28:12.728Z,4.00
2023-05-21T20:30:52.846Z,5.32
2023-05-21T20:33:20.235Z,6.95
2023-05-21T20:35:46.750Z,5.78
2023-05-21T20:38:13.409Z,6.65
2023-05-21T20:40:39.960Z,5.47
2023-05-21T20:43:06.963Z,5.38
2023-05-21T20:45:33.617Z,5.45
2023-05-21T20:48:01.358Z,4.40
2023-05-21T20:50:28.809Z,5.53
2023-05-21T20:52:55.328Z,5.95
2023-05-21T20:55:21.803Z,7.00
2023-05-21T20:57:48.513Z,6.75
2023-05-21T21:00:16.255Z,5.25
2023-05-21T21:02:42.872Z,4.78
2023-05-21T21:05:10.438Z,5.80
2023-05-21T21:07:37.547Z,5.03
2023-05-21T21:10:04.435Z,6.72
2023-05-21T21:12:31.246Z,4.20
2023-05-21T21:14:57.812Z,4.47
2023-05-21T21:17:24.338Z,5.75
2023-05-21T21:19:50.965Z,5.15
2023-05-21T21:22:18.498Z,4.22
2023-05-21T21:24:45.577Z,4.72
2023-05-21T21:27:12.166Z,6.50
2023-05-21T21:29:38.681Z,4.82
2023-05-21T21:32:05.405Z,3.97
2023-05-21T21:34:31.905Z,4.22
2023-05-21T21:36:58.369Z,3.97
2023-05-21T21:39:26.228Z,3.70
2023-05-21T21:41:52.687Z,5.95
2023-05-21T21:44:19.197Z,4.20
2023-05-21T21:46:45.653Z,4.03
2023-05-21T21:49:12.229Z,3.97
2023-05-21T21:51:39.653Z,5.40
2023-05-21T21:54:06.155Z,3.22
2023-05-21T21:56:32.577Z,4.72
2023-05-21T21:58:59.120Z,4.20
2023-05-21T22:01:25.852Z,4.22
2023-05-21T22:03:52.388Z,5.72
2023-05-21T22:06:18.906Z,4.60
2023-05-21T22:08:45.472Z,3.90
2023-05-21T22:11:12.140Z,4.25
2023-05-21T22:13:38.676Z,3.03
2023-05-21T22:16:05.620Z,3.00
2023-05-21T22:18:41.122Z,5.03
2023-05-21T22:21:10.006Z,3.78
2023-05-21T22:23:37.248Z,5.05
2023-05-21T22:26:03.885Z,4.25
2023-05-21T22:28:30.498Z,3.85
2023-05-21T22:30:57.302Z,4.40
2023-05-21T22:33:23.839Z,3.20
2023-05-21T22:35:50.730Z,2.88
2023-05-21T22:38:18.067Z,6.88
2023-05-21T22:40:44.589Z,3.47
2023-05-21T22:43:11.155Z,3.13
2023-05-21T22:45:38.404Z,3.83
2023-05-21T22:48:07.506Z,2.92
2023-05-21T22:50:34.010Z,3.35
2023-05-21T22:53:00.436Z,2.85
2023-05-21T22:55:26.905Z,3.88
2023-05-21T22:57:53.469Z,4.00
2023-05-21T23:00:20.181Z,4.78
2023-05-21T23:02:54.708Z,2.33
2023-05-21T23:05:21.857Z,2.83
2023-05-21T23:07:48.449Z,4.55
2023-05-21T23:10:23.797Z,5.55
2023-05-21T23:12:50.319Z,4.40
2023-05-21T23:15:16.791Z,2.70
2023-05-21T23:17:43.390Z,5.35
2023-05-21T23:20:10.518Z,3.88
2023-05-21T23:22:37.578Z,9.23
2023-05-21T23:25:04.209Z,3.92
2023-05-21T23:27:30.853Z,4.47
2023-05-21T23:29:57.341Z,2.45
2023-05-21T23:32:24.064Z,3.55
2023-05-21T23:34:50.828Z,4.10
2023-05-21T23:37:17.373Z,3.05
2023-05-21T23:39:48.156Z,4.28
2023-05-21T23:42:15.398Z,4.22
2023-05-21T23:44:41.951Z,3.83
2023-05-21T23:47:08.467Z,4.65
2023-05-21T23:49:34.919Z,3.35
2023-05-21T23:52:01.783Z,4.05
2023-05-21T23:54:28.296Z,3.95
2023-05-21T23:56:54.818Z,6.15
2023-05-21T23:59:21.314Z,3.45
